This is the latest recevied weather packets stored in our database for station/object DL5ARK. If no packets are shown the sender has not sent any weather packets the latest 10 day(s).
| Time | Temp. | Humidity | Pressure | Rain* | Wind** | Luminosity | Snow |
|---|---|---|---|---|---|---|---|
| 1777391687 | 17.78° C | 41% | 1007.7 hPa | 0 mm | - | - | - |
| 1777391327 | 18.33° C | 42% | 1007.7 hPa | 0 mm | - | - | - |
| 1777390967 | 17.78° C | 40% | 1008 hPa | 0 mm | - | - | - |
| 1777390788 | 18.89° C | 44% | 1008 hPa | 0 mm | - | - | - |
| 1777390608 | 18.33° C | 41% | 1007.7 hPa | 0 mm | - | - | - |
| 1777390428 | 18.33° C | 44% | 1008 hPa | 0 mm | - | - | - |
| 1777390248 | 17.78° C | 43% | 1008 hPa | 0 mm | - | - | - |
| 1777390068 | 17.78° C | 44% | 1007.7 hPa | 0 mm | - | - | - |
| 1777389887 | 17.22° C | 43% | 1007.7 hPa | 0 mm | - | - | - |
| 1777389707 | 17.78° C | 44% | 1008 hPa | 0 mm | - | - | - |
| 1777389528 | 17.78° C | 43% | 1008 hPa | 0 mm | - | - | - |
| 1777389347 | 17.22° C | 42% | 1008 hPa | 0 mm | - | - | - |
| 1777388986 | 16.67° C | - | - | - | - | - | - |
| 1777388808 | 17.22° C | 43% | 1008 hPa | 0 mm | - | - | - |
| 1777388447 | 17.22° C | 41% | 1008 hPa | 0 mm | - | - | - |
| 1777388267 | 16.67° C | 41% | 1008 hPa | 0 mm | - | - | - |
| 1777387907 | 17.78° C | 42% | 1008 hPa | 0 mm | - | - | - |
| 1777387728 | 17.22° C | 41% | 1007.7 hPa | 0 mm | - | - | - |
| 1777387548 | 17.22° C | 43% | 1008 hPa | 0 mm | - | - | - |
| 1777387367 | 17.22° C | 43% | 1008 hPa | 0 mm | - | - | - |
| 1777387187 | 17.22° C | 42% | 1008 hPa | 0 mm | - | - | - |
| 1777387010 | 17.22° C | 43% | 1008 hPa | 0 mm | - | - | - |
| 1777386827 | 16.67° C | 42% | 1007.7 hPa | 0 mm | - | - | - |
| 1777386647 | 17.22° C | 42% | 1007.7 hPa | 0 mm | - | - | - |
| 1777386467 | 17.22° C | 43% | 1008 hPa | 0 mm | - | - | - |
* Rain latest hour (hover to see other rain measurements)
** Current wind speed in m/s (hover to see current wind gust speed)